Time;durP1;ratioP1;P1;durP2;ratioP2;P2;SDS_P1;SDS_P2;PMS_P1;PMS_P2;Temp;Humidity;BMP_temperature;BMP_pressure;BME280_temperature;BME280_humidity;BME280_pressure;Samples;Min_cycle;Max_cycle;Signal;HPM_P1;HPM_P2
2022/08/16 00:00:18;;;;;;;5.50;5.00;;;19.10;91.40;;;;;;6250548;23;20849;-49
2022/08/16 00:02:44;;;;;;;5.93;5.33;;;19.20;91.60;;;;;;6250736;23;20370;-46
2022/08/16 00:05:12;;;;;;;5.77;5.27;;;19.20;91.80;;;;;;6250464;23;20810;-47
2022/08/16 00:07:38;;;;;;;6.10;5.60;;;19.10;91.80;;;;;;6251169;23;20159;-47
2022/08/16 00:10:06;;;;;;;6.10;5.60;;;19.10;92.00;;;;;;6249033;23;20737;-46
2022/08/16 00:12:32;;;;;;;5.77;5.30;;;19.00;92.10;;;;;;6250952;23;20778;-47
2022/08/16 00:15:01;;;;;;;6.50;5.40;;;19.00;92.20;;;;;;6250241;23;20424;-46
2022/08/16 00:17:26;;;;;;;6.80;5.67;;;19.00;92.20;;;;;;6249349;23;20376;-47
2022/08/16 00:19:53;;;;;;;6.60;6.00;;;19.00;92.20;;;;;;6249617;23;20491;-48
2022/08/16 00:22:19;;;;;;;6.30;5.10;;;19.00;92.30;;;;;;6250870;23;20151;-48
2022/08/16 00:24:44;;;;;;;5.43;4.80;;;19.00;92.40;;;;;;6249889;23;20363;-48
2022/08/16 00:27:10;;;;;;;6.03;5.57;;;19.00;92.30;;;;;;6247586;23;20244;-47
2022/08/16 00:29:36;;;;;;;5.70;5.20;;;19.00;92.30;;;;;;6249791;23;20143;-46
2022/08/16 00:32:04;;;;;;;5.10;4.70;;;19.10;92.20;;;;;;6248418;23;20393;-46
2022/08/16 00:34:30;;;;;;;5.43;4.93;;;19.10;92.20;;;;;;6249647;23;20201;-46
2022/08/16 00:36:56;;;;;;;5.70;5.20;;;19.20;92.20;;;;;;6249405;23;20405;-46
2022/08/16 00:39:21;;;;;;;6.30;5.77;;;19.20;92.20;;;;;;6249875;23;20354;-47
2022/08/16 00:41:48;;;;;;;7.67;6.00;;;19.20;92.20;;;;;;6250228;23;20154;-46
2022/08/16 00:44:16;;;;;;;5.93;5.40;;;19.20;92.20;;;;;;6250804;23;20188;-46
2022/08/16 00:47:00;;;;;;;4.83;4.43;;;19.20;92.40;;;;;;6250367;23;20385;-46
2022/08/16 00:49:26;;;;;;;6.07;5.53;;;19.20;92.40;;;;;;6249090;23;20409;-49
2022/08/16 00:51:52;;;;;;;6.23;5.60;;;19.20;92.50;;;;;;6249891;23;20391;-47
2022/08/16 00:54:18;;;;;;;6.40;5.87;;;19.20;92.50;;;;;;6250165;23;20520;-46
2022/08/16 00:56:46;;;;;;;5.70;5.20;;;19.20;92.70;;;;;;6249924;22;20364;-47
2022/08/16 00:59:13;;;;;;;6.17;5.57;;;19.20;92.80;;;;;;6248731;23;20839;-46
2022/08/16 01:01:39;;;;;;;5.83;5.27;;;19.10;92.90;;;;;;6249747;23;20371;-47
2022/08/16 01:04:06;;;;;;;5.73;5.23;;;19.10;93.00;;;;;;6249692;23;20373;-46
2022/08/16 01:06:40;;;;;;;5.83;5.33;;;19.10;93.10;;;;;;6248618;23;20349;-45
2022/08/16 01:09:06;;;;;;;6.07;5.57;;;19.10;93.20;;;;;;6250634;23;20640;-47
2022/08/16 01:11:34;;;;;;;6.93;6.20;;;19.20;93.30;;;;;;6248350;23;20358;-47
2022/08/16 01:14:24;;;;;;;6.10;5.60;;;19.20;93.60;;;;;;6248686;23;20378;-49
2022/08/16 01:16:50;;;;;;;6.90;5.77;;;19.20;93.50;;;;;;6248519;23;20398;-45
2022/08/16 01:19:17;;;;;;;7.17;5.57;;;19.20;93.90;;;;;;6249960;23;20416;-45
2022/08/16 01:21:45;;;;;;;6.70;6.10;;;19.10;94.00;;;;;;6248622;23;20415;-46
2022/08/16 01:24:30;;;;;;;7.00;6.30;;;19.00;94.20;;;;;;6249284;23;20852;-45
2022/08/16 01:27:00;;;;;;;6.20;5.70;;;18.90;94.60;;;;;;6249622;23;20387;-45
2022/08/16 01:29:41;;;;;;;5.63;5.13;;;18.80;94.60;;;;;;6250971;23;20385;-46
2022/08/16 01:32:06;;;;;;;6.70;6.00;;;18.80;94.70;;;;;;6247968;23;20446;-45
2022/08/16 01:34:32;;;;;;;5.77;5.17;;;18.80;95.00;;;;;;6248512;23;20714;-47
2022/08/16 01:37:03;;;;;;;5.73;5.23;;;18.80;94.60;;;;;;6249173;23;20137;-48
2022/08/16 01:39:29;;;;;;;7.17;6.47;;;18.90;94.60;;;;;;6250545;23;20293;-45
2022/08/16 01:41:55;;;;;;;5.90;5.37;;;18.90;94.80;;;;;;6249786;23;20370;-46
2022/08/16 01:44:21;;;;;;;6.10;5.50;;;19.00;94.90;;;;;;6250254;23;20381;-47
2022/08/16 01:46:47;;;;;;;6.80;6.20;;;19.00;94.90;;;;;;6249668;23;20167;-45
2022/08/16 01:49:34;;;;;;;6.37;5.80;;;18.90;95.10;;;;;;6249317;23;20157;-46
2022/08/16 01:52:04;;;;;;;6.50;5.90;;;18.80;95.20;;;;;;6249249;22;20385;-47
2022/08/16 01:54:30;;;;;;;6.30;5.70;;;18.80;95.40;;;;;;6249899;23;20432;-47
2022/08/16 01:56:56;;;;;;;6.80;5.53;;;18.80;95.70;;;;;;6249153;23;20374;-48
2022/08/16 01:59:22;;;;;;;6.70;6.10;;;18.70;95.70;;;;;;6249474;23;20155;-46
2022/08/16 02:01:49;;;;;;;6.60;5.83;;;18.70;95.80;;;;;;6249347;23;20687;-47
2022/08/16 02:04:16;;;;;;;6.20;5.60;;;18.70;95.80;;;;;;6248898;22;20388;-46
2022/08/16 02:06:42;;;;;;;6.30;5.77;;;18.70;95.80;;;;;;6248714;23;20706;-49
2022/08/16 02:09:08;;;;;;;5.70;5.10;;;18.80;96.00;;;;;;6249630;23;20475;-48
2022/08/16 02:11:36;;;;;;;6.20;5.60;;;18.80;96.00;;;;;;6249361;23;20446;-45
2022/08/16 02:14:02;;;;;;;6.03;5.50;;;18.80;95.90;;;;;;6249697;23;20655;-45
2022/08/16 02:16:27;;;;;;;7.30;6.70;;;18.80;96.00;;;;;;6249242;23;20359;-48
2022/08/16 02:18:53;;;;;;;6.03;5.53;;;18.80;95.90;;;;;;6249103;23;20828;-46
2022/08/16 02:21:20;;;;;;;7.80;6.73;;;18.80;96.00;;;;;;6250140;23;20161;-46
2022/08/16 02:23:45;;;;;;;5.93;5.33;;;18.70;96.10;;;;;;6249233;23;20367;-48
2022/08/16 02:26:12;;;;;;;7.07;5.57;;;18.70;96.10;;;;;;6249552;23;20383;-48
2022/08/16 02:28:38;;;;;;;9.97;5.50;;;18.70;96.20;;;;;;6248761;23;20140;-47
2022/08/16 02:31:07;;;;;;;5.70;5.20;;;18.80;96.10;;;;;;6249099;23;20644;-47
2022/08/16 02:33:32;;;;;;;7.07;6.37;;;18.80;96.00;;;;;;6247681;23;20427;-45
2022/08/16 02:35:58;;;;;;;6.53;5.83;;;18.90;96.10;;;;;;6249612;23;20427;-47
2022/08/16 02:38:25;;;;;;;5.67;5.27;;;18.90;96.00;;;;;;6248765;23;20808;-47
2022/08/16 02:40:51;;;;;;;5.90;5.40;;;18.80;95.90;;;;;;6249663;23;20197;-47
2022/08/16 02:43:17;;;;;;;6.10;5.60;;;18.90;95.70;;;;;;6248895;23;20645;-46
2022/08/16 02:45:43;;;;;;;6.20;5.60;;;19.00;95.60;;;;;;6248528;23;20566;-48
2022/08/16 02:48:09;;;;;;;7.10;5.03;;;19.00;95.60;;;;;;6249465;23;20138;-47
2022/08/16 02:50:35;;;;;;;5.57;5.07;;;19.00;95.40;;;;;;6249467;23;20671;-47
2022/08/16 02:53:00;;;;;;;5.97;5.37;;;19.10;95.30;;;;;;6248784;23;20463;-48
2022/08/16 02:55:26;;;;;;;5.67;5.10;;;19.10;95.30;;;;;;6248735;23;20562;-47
2022/08/16 02:57:52;;;;;;;6.23;5.63;;;19.10;95.30;;;;;;6248512;23;20250;-46
2022/08/16 03:00:18;;;;;;;6.00;5.50;;;19.10;95.20;;;;;;6248531;23;20750;-46
2022/08/16 03:02:44;;;;;;;5.47;4.97;;;19.10;95.10;;;;;;6248628;23;20216;-47
2022/08/16 03:05:13;;;;;;;5.30;4.90;;;19.10;95.10;;;;;;6247370;23;20821;-48
2022/08/16 03:07:39;;;;;;;6.67;5.53;;;19.10;95.10;;;;;;6247654;23;20382;-46
2022/08/16 03:10:07;;;;;;;5.57;5.07;;;19.10;95.00;;;;;;6247623;23;20760;-46
2022/08/16 03:12:33;;;;;;;6.00;5.40;;;19.20;94.90;;;;;;6248206;23;20664;-47
2022/08/16 03:14:58;;;;;;;10.73;6.83;;;19.20;95.00;;;;;;6247850;23;20501;-48
2022/08/16 03:17:25;;;;;;;6.40;5.80;;;19.20;94.90;;;;;;6246034;23;20150;-46
2022/08/16 03:19:52;;;;;;;5.90;5.50;;;19.20;95.10;;;;;;6247766;23;20132;-48
2022/08/16 03:22:19;;;;;;;5.90;5.40;;;19.10;95.20;;;;;;6250381;23;20384;-46
2022/08/16 03:24:45;;;;;;;5.43;5.00;;;19.00;95.30;;;;;;6248893;23;20475;-46
2022/08/16 03:27:11;;;;;;;7.17;5.67;;;19.00;95.20;;;;;;6248482;23;20634;-46
2022/08/16 03:29:36;;;;;;;5.93;5.33;;;19.00;95.30;;;;;;6248713;23;20202;-47
2022/08/16 03:32:03;;;;;;;5.17;4.63;;;19.00;95.20;;;;;;6248118;23;20175;-45
2022/08/16 03:34:30;;;;;;;6.00;5.50;;;19.00;95.10;;;;;;6248537;23;20189;-47
2022/08/16 03:36:56;;;;;;;5.83;4.97;;;19.00;95.10;;;;;;6248031;23;20387;-47
2022/08/16 03:39:21;;;;;;;6.83;5.50;;;19.00;95.00;;;;;;6248374;23;20663;-46
2022/08/16 03:41:48;;;;;;;5.50;5.00;;;19.00;95.00;;;;;;6248772;23;20358;-46
2022/08/16 03:44:13;;;;;;;5.33;4.93;;;19.00;94.90;;;;;;6249552;23;20450;-45
2022/08/16 03:46:39;;;;;;;5.97;5.30;;;19.00;94.90;;;;;;6249349;23;20375;-48
2022/08/16 03:49:07;;;;;;;5.67;5.07;;;19.00;94.90;;;;;;6249395;23;20151;-47
2022/08/16 03:51:33;;;;;;;5.90;5.40;;;19.00;94.90;;;;;;6249988;23;20143;-47
2022/08/16 03:53:59;;;;;;;5.50;5.10;;;19.00;94.90;;;;;;6248686;23;20676;-45
2022/08/16 03:56:26;;;;;;;5.97;5.47;;;19.00;94.80;;;;;;6248210;23;20136;-47
2022/08/16 03:58:51;;;;;;;5.40;4.90;;;19.10;94.80;;;;;;6249467;23;20183;-47
2022/08/16 04:01:18;;;;;;;5.73;5.23;;;19.10;94.80;;;;;;6248278;23;20870;-46
2022/08/16 04:03:44;;;;;;;7.07;5.47;;;19.10;94.80;;;;;;6248740;23;20150;-46
2022/08/16 04:06:09;;;;;;;6.63;6.03;;;19.10;94.70;;;;;;6247801;23;20373;-45
2022/08/16 04:08:35;;;;;;;6.40;5.80;;;19.20;95.00;;;;;;6248512;23;20141;-47
2022/08/16 04:11:02;;;;;;;6.00;5.50;;;19.20;95.00;;;;;;6248535;23;20216;-47
2022/08/16 04:13:30;;;;;;;6.20;5.70;;;19.20;94.90;;;;;;6247352;23;20131;-48
2022/08/16 04:15:58;;;;;;;6.47;5.50;;;19.20;94.90;;;;;;6247086;23;20414;-47
2022/08/16 04:18:24;;;;;;;5.53;5.03;;;19.20;94.90;;;;;;6246854;23;20383;-47
2022/08/16 04:20:50;;;;;;;6.50;6.00;;;19.20;94.90;;;;;;6246632;23;20368;-47
2022/08/16 04:23:16;;;;;;;6.27;5.67;;;19.20;94.80;;;;;;6245475;23;20361;-47
2022/08/16 04:25:41;;;;;;;6.33;5.83;;;19.20;94.80;;;;;;6246941;23;20399;-45
2022/08/16 04:28:07;;;;;;;5.53;5.10;;;19.20;94.70;;;;;;6245589;23;20487;-46
2022/08/16 04:30:33;;;;;;;6.13;5.60;;;19.30;94.70;;;;;;6246091;23;20591;-50
2022/08/16 04:32:59;;;;;;;6.17;5.63;;;19.30;94.80;;;;;;6246872;23;20153;-53
2022/08/16 04:35:25;;;;;;;5.73;5.33;;;19.30;94.80;;;;;;6245712;23;20197;-49
2022/08/16 04:37:51;;;;;;;7.53;6.80;;;19.40;94.80;;;;;;6247125;23;20406;-53
2022/08/16 04:40:17;;;;;;;6.00;5.50;;;19.40;94.70;;;;;;6247098;23;20375;-49
2022/08/16 04:42:44;;;;;;;5.60;5.20;;;19.40;94.70;;;;;;6248397;23;20363;-49
2022/08/16 04:45:14;;;;;;;6.00;5.50;;;19.40;94.70;;;;;;6249140;23;20470;-49
2022/08/16 04:47:41;;;;;;;6.07;5.33;;;19.50;94.60;;;;;;6248615;23;20438;-49
2022/08/16 04:50:14;;;;;;;5.60;5.03;;;19.50;94.70;;;;;;6247524;23;20445;-49
2022/08/16 04:52:41;;;;;;;5.57;5.07;;;19.60;94.60;;;;;;6246337;23;20764;-50
2022/08/16 04:55:17;;;;;;;8.03;6.10;;;19.60;94.40;;;;;;6242076;23;20738;-49
2022/08/16 04:57:44;;;;;;;6.03;5.53;;;19.70;94.40;;;;;;6243313;22;20527;-49
2022/08/16 05:00:14;;;;;;;6.50;5.93;;;19.70;94.20;;;;;;6244932;23;20362;-49
2022/08/16 05:02:40;;;;;;;5.90;5.40;;;19.80;94.10;;;;;;6247195;23;20388;-48
2022/08/16 05:05:06;;;;;;;6.03;5.30;;;19.80;94.00;;;;;;6246805;23;20580;-50
2022/08/16 05:07:32;;;;;;;6.50;5.80;;;19.90;93.80;;;;;;6248276;23;20384;-49
2022/08/16 05:09:58;;;;;;;6.33;5.77;;;20.00;93.90;;;;;;6248284;23;20433;-51
2022/08/16 05:12:23;;;;;;;6.00;5.17;;;19.90;93.90;;;;;;6247558;23;20153;-49
2022/08/16 05:14:49;;;;;;;6.67;6.07;;;19.90;93.90;;;;;;6246960;23;20171;-49
2022/08/16 05:17:15;;;;;;;7.33;6.63;;;19.90;94.00;;;;;;6246316;23;20229;-52
2022/08/16 05:19:41;;;;;;;6.27;5.67;;;19.90;94.20;;;;;;6246594;23;20476;-49
2022/08/16 05:22:08;;;;;;;7.00;6.40;;;19.80;94.10;;;;;;6247437;23;20148;-51
2022/08/16 05:24:33;;;;;;;6.50;6.00;;;19.80;94.20;;;;;;6247130;23;20415;-50
2022/08/16 05:26:59;;;;;;;6.13;5.63;;;19.80;94.30;;;;;;6246992;23;20386;-53
2022/08/16 05:29:25;;;;;;;6.03;5.53;;;19.80;94.30;;;;;;6244496;23;20149;-50
2022/08/16 05:31:51;;;;;;;6.37;5.90;;;19.90;94.20;;;;;;6244966;23;20393;-51
2022/08/16 05:34:20;;;;;;;5.70;5.20;;;20.00;94.10;;;;;;6242007;23;20245;-53
2022/08/16 05:36:48;;;;;;;5.90;5.40;;;20.00;94.10;;;;;;6245145;23;20612;-50
2022/08/16 05:39:14;;;;;;;5.93;5.50;;;20.10;94.00;;;;;;6244108;23;20363;-48
2022/08/16 05:41:39;;;;;;;5.97;5.47;;;20.10;93.80;;;;;;6244949;23;20426;-51
2022/08/16 05:44:05;;;;;;;6.03;5.50;;;20.10;93.90;;;;;;6241460;23;20482;-49
2022/08/16 05:46:30;;;;;;;6.50;5.90;;;20.10;93.80;;;;;;6242366;23;20175;-48
2022/08/16 05:48:59;;;;;;;8.10;5.90;;;20.10;93.80;;;;;;6244307;22;20406;-48
2022/08/16 05:51:25;;;;;;;6.00;5.47;;;20.20;93.90;;;;;;6244765;23;20150;-49
2022/08/16 05:53:51;;;;;;;6.73;5.70;;;20.20;93.90;;;;;;6244376;23;20674;-52
2022/08/16 05:56:16;;;;;;;5.73;5.10;;;20.20;93.80;;;;;;6245707;23;20594;-49
2022/08/16 05:58:42;;;;;;;6.50;5.90;;;20.30;93.70;;;;;;6247033;23;20166;-50
2022/08/16 06:01:07;;;;;;;6.77;6.07;;;20.30;93.70;;;;;;6245031;23;20167;-48
2022/08/16 06:03:33;;;;;;;5.47;5.07;;;20.20;93.60;;;;;;6244431;23;20135;-48
2022/08/16 06:06:00;;;;;;;5.77;5.27;;;20.20;93.70;;;;;;6243571;23;20255;-48
2022/08/16 06:08:26;;;;;;;5.30;4.90;;;20.10;93.70;;;;;;6242737;23;20165;-51
2022/08/16 06:10:51;;;;;;;6.60;6.00;;;20.20;93.80;;;;;;6242743;23;20558;-48
2022/08/16 06:13:18;;;;;;;5.90;5.40;;;20.10;93.90;;;;;;6241730;23;20452;-51
2022/08/16 06:15:43;;;;;;;6.47;5.87;;;20.20;94.00;;;;;;6241526;23;20196;-48
2022/08/16 06:18:09;;;;;;;6.10;5.60;;;20.10;94.00;;;;;;6243051;23;20384;-47
2022/08/16 06:20:35;;;;;;;7.30;6.30;;;20.10;94.10;;;;;;6244813;23;20337;-48
2022/08/16 06:23:00;;;;;;;6.57;6.00;;;20.20;94.10;;;;;;6244564;23;20208;-50
2022/08/16 06:25:27;;;;;;;6.70;6.20;;;20.20;94.00;;;;;;6244483;23;20148;-49
2022/08/16 06:27:53;;;;;;;6.67;6.07;;;20.40;93.80;;;;;;6242043;23;20141;-48
2022/08/16 06:30:19;;;;;;;9.23;6.07;;;20.50;93.70;;;;;;6242774;23;20476;-51
2022/08/16 06:32:46;;;;;;;8.93;6.67;;;20.50;93.50;;;;;;6246173;23;20156;-48
2022/08/16 06:35:12;;;;;;;6.70;5.10;;;20.60;93.40;;;;;;6241937;23;20497;-48
2022/08/16 06:37:39;;;;;;;8.43;7.50;;;20.60;93.30;;;;;;6240444;23;21460;-49
2022/08/16 06:40:05;;;;;;;6.77;6.17;;;20.70;93.20;;;;;;6241769;23;20451;-47
2022/08/16 06:42:31;;;;;;;6.40;5.80;;;20.80;93.20;;;;;;6241260;23;20360;-50
2022/08/16 06:44:57;;;;;;;7.63;6.90;;;20.90;93.10;;;;;;6242633;23;20363;-48
2022/08/16 06:47:23;;;;;;;9.33;6.03;;;21.00;92.80;;;;;;6241256;23;20359;-49
2022/08/16 06:49:49;;;;;;;7.50;6.83;;;21.10;92.70;;;;;;6241142;23;20156;-48
2022/08/16 06:52:15;;;;;;;7.03;6.43;;;21.30;92.40;;;;;;6242748;23;20136;-49
2022/08/16 06:54:41;;;;;;;8.10;7.00;;;21.40;92.20;;;;;;6240839;23;20176;-52
2022/08/16 06:57:09;;;;;;;7.67;6.97;;;21.50;92.00;;;;;;6240378;23;20364;-51
2022/08/16 06:59:35;;;;;;;6.73;6.07;;;21.60;91.70;;;;;;6241692;23;20867;-48
2022/08/16 07:02:01;;;;;;;11.03;8.40;;;21.70;91.60;;;;;;6241312;23;20418;-49
2022/08/16 07:04:27;;;;;;;7.77;6.93;;;21.90;91.30;;;;;;6241902;23;20743;-50
2022/08/16 07:06:53;;;;;;;9.47;7.23;;;21.90;91.00;;;;;;6238818;23;20281;-49
2022/08/16 07:09:19;;;;;;;7.77;7.07;;;22.00;91.00;;;;;;6240919;23;20383;-53
2022/08/16 07:11:44;;;;;;;8.83;8.13;;;22.00;90.50;;;;;;6240943;23;20141;-50
2022/08/16 07:14:11;;;;;;;8.13;7.23;;;22.20;90.30;;;;;;6241268;23;20455;-50
2022/08/16 07:16:36;;;;;;;8.30;7.50;;;22.20;90.40;;;;;;6242858;23;20131;-52
2022/08/16 07:19:02;;;;;;;7.67;6.97;;;22.30;90.10;;;;;;6244288;23;20387;-50
2022/08/16 07:21:28;;;;;;;9.50;8.70;;;22.60;89.70;;;;;;6239804;23;20166;-50
2022/08/16 07:23:53;;;;;;;8.10;7.47;;;22.80;88.50;;;;;;6241625;23;20190;-52
2022/08/16 07:26:22;;;;;;;7.80;7.20;;;22.90;87.60;;;;;;6242878;23;20143;-50
2022/08/16 07:28:48;;;;;;;7.90;7.20;;;23.00;87.20;;;;;;6246328;23;20152;-53
2022/08/16 07:31:14;;;;;;;8.00;7.40;;;23.10;86.70;;;;;;6245195;23;20377;-51
2022/08/16 07:33:41;;;;;;;8.50;7.80;;;23.20;86.10;;;;;;6243071;23;20341;-53
2022/08/16 07:36:07;;;;;;;8.73;8.13;;;23.30;85.30;;;;;;6243303;23;20529;-49
2022/08/16 07:38:33;;;;;;;8.03;7.33;;;23.50;85.00;;;;;;6244083;23;20640;-50
2022/08/16 07:40:59;;;;;;;8.90;8.07;;;23.70;84.50;;;;;;6245811;23;20481;-49
2022/08/16 07:43:25;;;;;;;8.80;8.07;;;24.00;83.70;;;;;;6245084;23;20387;-48
2022/08/16 07:45:53;;;;;;;8.50;7.80;;;24.30;81.60;;;;;;6246638;23;20811;-51
2022/08/16 07:48:18;;;;;;;8.80;7.90;;;24.50;80.90;;;;;;6245519;22;20526;-48
2022/08/16 07:50:45;;;;;;;8.90;8.30;;;24.70;79.80;;;;;;6246116;23;20384;-54
2022/08/16 07:53:11;;;;;;;8.50;7.70;;;24.90;79.00;;;;;;6247445;23;20150;-50
2022/08/16 07:55:37;;;;;;;8.70;8.00;;;25.10;78.60;;;;;;6243051;23;20466;-52
2022/08/16 07:58:03;;;;;;;9.40;8.70;;;25.30;77.60;;;;;;6244873;23;20363;-49
2022/08/16 08:00:30;;;;;;;9.10;8.23;;;25.50;77.50;;;;;;6244544;23;20208;-50
2022/08/16 08:02:55;;;;;;;9.40;8.60;;;25.70;75.90;;;;;;6244217;23;20360;-47
2022/08/16 08:05:23;;;;;;;9.63;8.73;;;25.90;74.70;;;;;;6242480;23;20412;-48
2022/08/16 08:07:49;;;;;;;9.47;8.77;;;25.90;74.20;;;;;;6243885;23;20492;-50
2022/08/16 08:10:14;;;;;;;8.80;8.00;;;25.80;72.60;;;;;;6245103;23;20385;-48
2022/08/16 08:12:42;;;;;;;8.27;7.57;;;25.70;73.50;;;;;;6246324;23;20705;-50
2022/08/16 08:15:10;;;;;;;9.20;7.60;;;26.00;72.50;;;;;;6246471;23;20175;-52
2022/08/16 08:17:38;;;;;;;8.80;8.07;;;25.90;71.80;;;;;;6245901;23;20386;-51
2022/08/16 08:20:06;;;;;;;8.10;7.43;;;26.10;71.60;;;;;;6246063;23;20376;-52
2022/08/16 08:22:34;;;;;;;7.70;7.10;;;26.00;70.90;;;;;;6246520;23;20369;-55
2022/08/16 08:25:01;;;;;;;9.10;8.50;;;26.00;70.80;;;;;;6240886;23;20386;-52
2022/08/16 08:27:26;;;;;;;9.00;8.30;;;25.90;70.80;;;;;;6242857;23;20380;-50
2022/08/16 08:29:52;;;;;;;9.30;8.50;;;25.60;70.90;;;;;;6240239;23;20376;-48
2022/08/16 08:32:20;;;;;;;8.13;7.43;;;25.40;71.70;;;;;;6243400;23;20145;-52
2022/08/16 08:34:48;;;;;;;8.50;7.70;;;25.30;72.60;;;;;;6242297;23;20280;-51
2022/08/16 08:37:14;;;;;;;7.97;7.37;;;25.20;72.90;;;;;;6243907;23;20411;-51
2022/08/16 08:39:40;;;;;;;8.60;7.70;;;25.20;73.10;;;;;;6244750;23;20384;-53
2022/08/16 08:42:07;;;;;;;8.57;7.87;;;25.10;73.00;;;;;;6244831;23;20136;-55
2022/08/16 08:44:33;;;;;;;13.23;9.17;;;25.10;73.40;;;;;;6219897;23;20396;-44
2022/08/16 08:47:04;;;;;;;9.53;8.70;;;25.00;73.10;;;;;;6243940;23;20365;-45
2022/08/16 08:49:30;;;;;;;8.70;8.10;;;25.00;73.40;;;;;;6246069;23;20357;-45
2022/08/16 08:51:57;;;;;;;8.97;8.20;;;24.90;74.00;;;;;;6246745;23;20406;-45
2022/08/16 08:54:24;;;;;;;9.17;8.30;;;24.70;74.30;;;;;;6247362;23;20827;-44
2022/08/16 08:56:51;;;;;;;9.67;8.70;;;24.50;74.70;;;;;;6245867;23;20354;-47
2022/08/16 08:59:17;;;;;;;8.27;7.53;;;24.30;75.30;;;;;;6246672;23;20365;-45
2022/08/16 09:01:43;;;;;;;9.03;8.20;;;24.40;75.70;;;;;;6246383;23;20393;-43
2022/08/16 09:04:09;;;;;;;8.10;7.50;;;24.50;75.60;;;;;;6246314;23;20356;-45
2022/08/16 09:06:34;;;;;;;8.87;8.20;;;24.30;75.30;;;;;;6247842;23;20415;-44
2022/08/16 09:09:01;;;;;;;8.70;8.00;;;24.60;75.40;;;;;;6246749;23;20368;-44
2022/08/16 09:11:28;;;;;;;8.97;8.17;;;25.10;74.00;;;;;;6245788;23;20197;-45
2022/08/16 09:13:54;;;;;;;7.37;6.77;;;25.70;74.00;;;;;;6246491;23;20764;-45
2022/08/16 09:16:20;;;;;;;8.07;7.37;;;26.50;71.50;;;;;;6246117;23;20427;-44
2022/08/16 09:18:47;;;;;;;7.67;6.97;;;27.40;70.60;;;;;;6245650;23;20370;-44
2022/08/16 09:21:14;;;;;;;8.13;7.43;;;28.30;66.20;;;;;;6246030;23;20399;-45
2022/08/16 09:23:40;;;;;;;7.50;6.73;;;29.10;61.90;;;;;;6246638;23;20923;-44
2022/08/16 09:26:09;;;;;;;7.73;7.03;;;29.80;58.90;;;;;;6246002;23;20478;-45
2022/08/16 09:28:36;;;;;;;7.87;7.37;;;30.30;55.60;;;;;;6245971;23;20829;-45
2022/08/16 09:31:03;;;;;;;7.83;7.20;;;30.10;54.30;;;;;;6246947;23;20568;-44
2022/08/16 09:33:28;;;;;;;7.60;7.10;;;29.40;54.60;;;;;;6243842;23;20811;-44
2022/08/16 09:35:54;;;;;;;7.77;7.07;;;28.40;55.70;;;;;;6244941;23;20519;-44
2022/08/16 09:38:21;;;;;;;6.97;6.57;;;27.80;57.10;;;;;;6247069;23;20138;-45
2022/08/16 09:40:47;;;;;;;7.43;6.80;;;27.50;57.80;;;;;;6246176;23;20220;-43
2022/08/16 09:43:19;;;;;;;7.93;7.13;;;27.60;58.60;;;;;;6247303;23;20393;-45
2022/08/16 09:45:46;;;;;;;7.00;6.50;;;27.90;58.80;;;;;;6246644;23;20231;-46
2022/08/16 09:48:13;;;;;;;7.30;6.60;;;27.90;57.30;;;;;;6244784;23;20925;-45
2022/08/16 09:50:40;;;;;;;7.73;7.03;;;28.00;57.20;;;;;;6246437;23;20359;-44
2022/08/16 09:53:15;;;;;;;7.97;7.27;;;28.00;57.50;;;;;;6245059;23;20426;-44
2022/08/16 09:55:42;;;;;;;6.97;6.47;;;28.10;57.10;;;;;;6246925;23;20892;-45
2022/08/16 09:58:08;;;;;;;7.77;7.17;;;28.10;56.90;;;;;;6246870;23;20368;-45
2022/08/16 10:00:34;;;;;;;7.73;7.20;;;28.10;57.00;;;;;;6246332;23;20377;-44
2022/08/16 10:03:00;;;;;;;7.60;7.10;;;28.10;56.50;;;;;;6245794;23;20396;-46
2022/08/16 10:05:26;;;;;;;7.80;7.20;;;28.20;56.30;;;;;;6246495;23;20407;-45
2022/08/16 10:07:52;;;;;;;7.13;6.57;;;28.10;55.80;;;;;;6245436;23;20436;-45
2022/08/16 10:10:22;;;;;;;7.73;6.70;;;27.80;56.00;;;;;;6246746;23;20365;-44
2022/08/16 10:15:33;;;;;;;9.40;7.10;;;27.60;56.20;;;;;;6246561;23;20422;-45
2022/08/16 10:18:00;;;;;;;7.40;6.30;;;27.80;56.40;;;;;;6247292;23;20416;-46
2022/08/16 10:20:26;;;;;;;7.27;6.70;;;28.10;55.50;;;;;;6245952;23;20368;-45
2022/08/16 10:22:53;;;;;;;7.50;6.87;;;27.90;55.00;;;;;;6246125;23;20387;-47
2022/08/16 10:25:19;;;;;;;8.30;7.60;;;27.80;55.30;;;;;;6244158;23;20399;-45
2022/08/16 10:27:46;;;;;;;7.17;6.43;;;27.60;55.30;;;;;;6246217;23;20384;-45
2022/08/16 10:30:13;;;;;;;7.20;6.70;;;27.50;55.60;;;;;;6244573;23;20430;-45
2022/08/16 10:32:39;;;;;;;8.17;7.47;;;27.50;55.90;;;;;;6243156;23;20487;-45
2022/08/16 10:35:05;;;;;;;7.27;6.77;;;27.40;55.50;;;;;;6245497;23;20436;-45
2022/08/16 10:37:31;;;;;;;7.80;7.20;;;27.20;55.90;;;;;;6244767;23;20132;-44
2022/08/16 10:39:56;;;;;;;7.83;7.07;;;27.20;55.70;;;;;;6244340;23;20370;-46
2022/08/16 10:42:22;;;;;;;7.60;6.90;;;27.10;55.70;;;;;;6246984;23;20137;-46
2022/08/16 10:44:48;;;;;;;8.43;7.73;;;26.80;56.00;;;;;;6246020;23;20645;-45
2022/08/16 10:47:14;;;;;;;8.73;7.80;;;26.60;56.80;;;;;;6245298;23;20136;-44
2022/08/16 10:49:40;;;;;;;7.43;6.93;;;26.40;56.70;;;;;;6246309;23;20472;-45
2022/08/16 10:52:06;;;;;;;6.97;6.37;;;26.10;57.10;;;;;;6244320;23;20368;-45
2022/08/16 10:54:32;;;;;;;8.03;7.33;;;26.10;57.30;;;;;;6245553;22;20173;-43
2022/08/16 10:56:58;;;;;;;7.47;6.87;;;26.10;57.20;;;;;;6243308;23;20365;-46
2022/08/16 10:59:26;;;;;;;8.07;7.47;;;26.10;57.60;;;;;;6244746;23;20675;-44
2022/08/16 11:01:52;;;;;;;7.60;6.90;;;26.20;57.40;;;;;;6246620;22;20358;-45
2022/08/16 11:04:18;;;;;;;7.67;6.97;;;26.20;57.60;;;;;;6246795;23;20527;-47
2022/08/16 11:06:44;;;;;;;8.53;7.50;;;26.30;57.60;;;;;;6244719;23;20288;-45
2022/08/16 11:09:10;;;;;;;8.73;8.00;;;26.50;57.30;;;;;;6244959;23;20380;-46
2022/08/16 11:11:35;;;;;;;7.67;6.70;;;26.70;57.30;;;;;;6245651;23;20142;-47
2022/08/16 11:14:01;;;;;;;7.37;6.77;;;27.20;57.80;;;;;;6244316;23;20376;-45
2022/08/16 11:16:29;;;;;;;8.30;6.57;;;28.00;57.30;;;;;;6244340;23;20228;-47
2022/08/16 11:18:56;;;;;;;8.10;6.50;;;28.80;55.90;;;;;;6245094;23;20199;-44
2022/08/16 11:21:24;;;;;;;6.43;5.90;;;29.80;54.10;;;;;;6246471;23;20914;-45
2022/08/16 11:23:51;;;;;;;6.97;6.37;;;30.80;52.40;;;;;;6246507;23;20396;-45
2022/08/16 11:26:18;;;;;;;8.10;6.60;;;31.60;50.90;;;;;;6245398;23;20754;-45
2022/08/16 11:28:43;;;;;;;6.40;5.90;;;32.20;49.30;;;;;;6245147;23;20356;-46
2022/08/16 11:31:09;;;;;;;6.67;6.17;;;32.80;48.70;;;;;;6243986;23;20376;-47
2022/08/16 11:33:35;;;;;;;7.30;6.80;;;33.30;47.50;;;;;;6215945;23;20195;-47
2022/08/16 11:36:02;;;;;;;6.90;6.40;;;33.70;45.30;;;;;;6244385;23;20411;-47
2022/08/16 11:38:28;;;;;;;6.57;6.07;;;33.70;43.70;;;;;;6243615;23;20225;-45
2022/08/16 11:40:57;;;;;;;5.90;5.40;;;33.80;44.10;;;;;;6243809;23;20753;-46
2022/08/16 11:43:25;;;;;;;6.93;6.27;;;34.40;44.20;;;;;;6245594;23;20152;-46
2022/08/16 11:45:52;;;;;;;6.47;5.87;;;34.70;42.20;;;;;;6244228;23;20788;-44
2022/08/16 11:48:18;;;;;;;6.27;5.70;;;35.20;42.10;;;;;;6245316;23;20405;-45
2022/08/16 11:50:45;;;;;;;6.27;5.77;;;36.00;41.90;;;;;;6243433;23;20403;-45
2022/08/16 11:53:11;;;;;;;6.50;6.00;;;36.60;40.70;;;;;;6242731;23;20355;-44
2022/08/16 11:55:38;;;;;;;5.93;5.43;;;37.20;38.40;;;;;;6247131;23;20470;-46
2022/08/16 11:58:06;;;;;;;6.93;6.23;;;37.10;37.50;;;;;;6248019;23;20376;-44
2022/08/16 12:00:32;;;;;;;6.37;5.77;;;37.10;38.00;;;;;;6247003;23;20360;-46
2022/08/16 12:02:58;;;;;;;6.23;5.83;;;37.10;37.60;;;;;;6248797;23;20385;-46
2022/08/16 12:05:25;;;;;;;6.33;5.73;;;37.20;36.90;;;;;;6247765;23;20344;-46
2022/08/16 12:07:53;;;;;;;6.43;5.93;;;36.60;36.50;;;;;;6249084;23;20196;-46
2022/08/16 12:10:21;;;;;;;5.80;5.40;;;35.80;37.10;;;;;;6249304;23;20365;-47
2022/08/16 12:12:47;;;;;;;6.27;5.77;;;35.30;37.90;;;;;;6247707;23;20664;-46
2022/08/16 12:15:13;;;;;;;6.70;5.77;;;35.00;37.90;;;;;;6245873;23;20409;-45
2022/08/16 12:17:41;;;;;;;5.60;5.20;;;34.60;38.20;;;;;;6246960;23;20398;-45
2022/08/16 12:20:11;;;;;;;5.73;5.23;;;34.50;38.90;;;;;;6248403;23;20396;-45
2022/08/16 12:22:37;;;;;;;5.47;5.00;;;34.80;38.60;;;;;;6248416;23;20472;-46
2022/08/16 12:25:05;;;;;;;6.50;5.70;;;35.40;38.20;;;;;;6247112;23;20352;-46
2022/08/16 12:27:31;;;;;;;5.70;5.30;;;35.50;37.70;;;;;;6246682;23;20429;-46
2022/08/16 12:29:58;;;;;;;5.97;5.37;;;35.60;37.50;;;;;;6247563;23;20391;-43
2022/08/16 12:32:24;;;;;;;6.43;5.93;;;34.80;37.60;;;;;;6249521;23;20365;-45
2022/08/16 12:34:51;;;;;;;6.23;5.77;;;35.10;37.70;;;;;;6245363;23;20451;-46
2022/08/16 12:37:17;;;;;;;7.60;5.60;;;35.50;37.60;;;;;;6247386;23;20130;-46
2022/08/16 12:39:43;;;;;;;6.13;5.53;;;35.30;37.00;;;;;;6246187;23;20416;-45
2022/08/16 12:42:08;;;;;;;5.90;5.50;;;35.10;37.30;;;;;;6245169;23;20851;-45
2022/08/16 12:44:35;;;;;;;6.30;5.90;;;35.40;36.80;;;;;;6243861;23;20138;-45